Gail, Texas
Current Conditions -  °F | °C
As of 3:55 PM on Thursday 25 Dec 2014 (Local Time) from KSNK Reporting Station
Clear Clear  
Wind Chill: 58°   Ceiling: Unl
Heat Index: 58°   Visibility: 10mi
Dew Point: 23°   Wind: 17mph
Humidity: 26%   Direction: 180°S
Pressure: 29.77"   Gusts: 23mph
Location:  32.77°N, 101.45°W
Report Text: KSNK 252155Z AUTO 18015G20KT 10SM CLR 14/M05 A2977 RMK AO2 T01431051
Loading
Personal Weather Stations






























Interactive Weather Map New forecast layout! Learn more

10-Day Weather Forecast

Advertisements
Track Severe Weather on mobile